createdAt,value
2019-05-05T00:02:25.224Z,5.90
2019-05-05T00:04:56.881Z,5.90
2019-05-05T00:07:28.687Z,5.90
2019-05-05T00:09:59.485Z,5.80
2019-05-05T00:12:44.854Z,5.80
2019-05-05T00:15:34.491Z,5.80
2019-05-05T00:18:06.099Z,5.80
2019-05-05T00:20:36.097Z,5.80
2019-05-05T00:23:06.216Z,5.80
2019-05-05T00:25:36.317Z,5.80
2019-05-05T00:28:06.409Z,5.80
2019-05-05T00:30:36.637Z,5.70
2019-05-05T00:33:07.042Z,5.70
2019-05-05T00:35:36.963Z,5.70
2019-05-05T00:38:07.067Z,5.60
2019-05-05T00:40:37.271Z,5.60
2019-05-05T00:43:07.351Z,5.50
2019-05-05T00:45:39.000Z,5.50
2019-05-05T00:48:14.840Z,5.50
2019-05-05T00:50:45.479Z,5.40
2019-05-05T00:53:15.399Z,5.40
2019-05-05T00:55:45.188Z,5.40
2019-05-05T00:58:15.544Z,5.40
2019-05-05T01:00:50.538Z,5.30
2019-05-05T01:03:24.214Z,5.40
2019-05-05T01:05:58.525Z,5.40
2019-05-05T01:08:29.734Z,5.40
2019-05-05T01:11:00.220Z,5.40
2019-05-05T01:13:30.236Z,5.40
2019-05-05T01:16:00.240Z,5.40
2019-05-05T01:18:30.222Z,5.30
2019-05-05T01:21:00.043Z,5.40
2019-05-05T01:23:30.081Z,5.30
2019-05-05T01:26:00.353Z,5.30
2019-05-05T01:28:30.698Z,5.30
2019-05-05T01:31:02.369Z,5.10
2019-05-05T01:33:34.381Z,5.10
2019-05-05T01:36:04.993Z,5.10
2019-05-05T01:38:44.648Z,5.00
2019-05-05T01:41:16.974Z,5.00
2019-05-05T01:43:47.281Z,5.00
2019-05-05T01:46:17.406Z,5.00
2019-05-05T01:48:47.995Z,4.90
2019-05-05T01:51:17.990Z,4.90
2019-05-05T01:53:48.117Z,4.90
2019-05-05T01:56:19.770Z,4.90
2019-05-05T01:58:51.293Z,4.90
2019-05-05T02:01:21.985Z,4.90
2019-05-05T02:03:54.726Z,4.80
2019-05-05T02:06:24.954Z,4.80
2019-05-05T02:08:55.466Z,4.80
2019-05-05T02:11:25.379Z,4.80
2019-05-05T02:13:55.681Z,4.80
2019-05-05T02:16:25.806Z,4.80
2019-05-05T02:18:55.971Z,4.80
2019-05-05T02:21:25.957Z,4.70
2019-05-05T02:23:56.419Z,4.80
2019-05-05T02:26:26.624Z,4.70
2019-05-05T02:29:04.967Z,4.70
2019-05-05T02:31:39.870Z,4.70
2019-05-05T02:34:11.508Z,4.80
2019-05-05T02:36:41.617Z,4.80
2019-05-05T02:39:15.775Z,4.80
2019-05-05T02:41:45.855Z,4.80
2019-05-05T02:44:16.186Z,4.80
2019-05-05T02:46:50.242Z,4.80
2019-05-05T02:49:21.116Z,4.80
2019-05-05T02:51:55.241Z,4.70
2019-05-05T02:54:26.247Z,4.70
2019-05-05T02:56:57.240Z,4.70
2019-05-05T02:59:38.060Z,4.70
2019-05-05T03:02:09.427Z,4.70
2019-05-05T03:04:40.057Z,4.70
2019-05-05T03:07:13.759Z,4.80
2019-05-05T03:09:46.034Z,4.70
2019-05-05T03:12:20.217Z,4.60
2019-05-05T03:15:14.255Z,4.60
2019-05-05T03:17:44.777Z,4.60
2019-05-05T03:20:15.518Z,4.60
2019-05-05T03:22:46.223Z,4.50
2019-05-05T03:25:16.433Z,4.60
2019-05-05T03:27:46.346Z,4.50
2019-05-05T03:30:16.768Z,4.60
2019-05-05T03:32:47.105Z,4.60
2019-05-05T03:35:17.165Z,4.40
2019-05-05T03:37:47.869Z,4.40
2019-05-05T03:40:20.172Z,4.30
2019-05-05T03:42:53.591Z,4.30
2019-05-05T03:45:26.648Z,4.20
2019-05-05T03:47:57.347Z,4.10
2019-05-05T03:50:28.832Z,4.10
2019-05-05T03:52:59.447Z,4.10
2019-05-05T03:55:30.550Z,4.10
2019-05-05T03:58:01.183Z,4.10
2019-05-05T04:00:50.217Z,4.10
2019-05-05T04:03:20.518Z,4.10
2019-05-05T04:05:59.279Z,4.10
2019-05-05T04:08:30.099Z,4.00
2019-05-05T04:11:00.087Z,4.10
2019-05-05T04:13:31.073Z,4.00
2019-05-05T04:16:14.860Z,4.10
2019-05-05T04:18:49.303Z,4.10
2019-05-05T04:21:30.294Z,4.10
2019-05-05T04:23:53.401Z,4.10
2019-05-05T04:26:23.466Z,4.00
2019-05-05T04:28:54.177Z,4.00
2019-05-05T04:31:24.272Z,4.00
2019-05-05T04:33:54.181Z,4.00
2019-05-05T04:36:24.291Z,4.00
2019-05-05T04:38:54.683Z,4.10
2019-05-05T04:41:24.833Z,4.20
2019-05-05T04:43:54.865Z,4.10
2019-05-05T04:46:25.527Z,4.10
2019-05-05T04:48:57.304Z,4.10
2019-05-05T04:51:28.664Z,4.20
2019-05-05T04:54:16.595Z,4.10
2019-05-05T04:56:46.800Z,4.20
2019-05-05T04:59:17.121Z,4.10
2019-05-05T05:01:48.698Z,4.10
2019-05-05T05:04:20.474Z,4.00
2019-05-05T05:07:00.620Z,4.00
2019-05-05T05:09:30.931Z,4.00
2019-05-05T05:12:01.226Z,4.10
2019-05-05T05:14:31.141Z,4.10
2019-05-05T05:17:03.510Z,4.10
2019-05-05T05:19:33.816Z,4.20
2019-05-05T05:22:05.019Z,4.20
2019-05-05T05:24:35.414Z,4.20
2019-05-05T05:27:05.327Z,4.30
2019-05-05T05:29:35.489Z,4.30
2019-05-05T05:32:05.451Z,4.20
2019-05-05T05:34:35.362Z,4.30
2019-05-05T05:37:05.558Z,4.30
2019-05-05T05:39:37.360Z,4.30
2019-05-05T05:42:07.171Z,4.40
2019-05-05T05:44:53.692Z,4.40
2019-05-05T05:47:25.072Z,4.50
2019-05-05T05:49:59.415Z,4.50
2019-05-05T05:52:29.356Z,4.50
2019-05-05T05:54:59.247Z,4.50
2019-05-05T05:57:29.163Z,4.60
2019-05-05T05:59:59.172Z,4.60
2019-05-05T06:02:29.183Z,4.60
2019-05-05T06:04:59.394Z,4.60
2019-05-05T06:07:29.185Z,4.70
2019-05-05T06:09:59.516Z,4.80
2019-05-05T06:12:29.431Z,4.80
2019-05-05T06:14:59.487Z,4.90
2019-05-05T06:17:29.538Z,5.00
2019-05-05T06:19:59.364Z,5.00
2019-05-05T06:22:31.558Z,5.00
2019-05-05T06:25:01.022Z,5.10
2019-05-05T06:27:30.976Z,5.20
2019-05-05T06:30:01.659Z,5.20
2019-05-05T06:32:31.588Z,5.30
2019-05-05T06:35:03.551Z,5.30
2019-05-05T06:37:34.240Z,5.40
2019-05-05T06:40:08.408Z,5.50
2019-05-05T06:42:40.109Z,5.60
2019-05-05T06:45:14.915Z,5.70
2019-05-05T06:47:44.761Z,5.80
2019-05-05T06:50:15.334Z,5.80
2019-05-05T06:52:47.207Z,6.00
2019-05-05T06:55:17.225Z,6.10
2019-05-05T06:57:49.133Z,6.00
2019-05-05T07:00:19.592Z,6.10
2019-05-05T07:02:49.385Z,6.10
2019-05-05T07:05:19.633Z,6.10
2019-05-05T07:07:49.910Z,6.20
2019-05-05T07:10:20.246Z,6.10
2019-05-05T07:12:50.036Z,6.20
2019-05-05T07:15:20.275Z,6.20
2019-05-05T07:17:50.289Z,6.40
2019-05-05T07:20:20.381Z,6.60
2019-05-05T07:23:01.517Z,6.70
2019-05-05T07:25:24.116Z,6.80
2019-05-05T07:27:54.728Z,6.90
2019-05-05T07:30:24.764Z,7.10
2019-05-05T07:32:54.880Z,7.20
2019-05-05T07:35:29.309Z,7.10
2019-05-05T07:37:59.223Z,7.10
2019-05-05T07:40:29.334Z,7.00
2019-05-05T07:42:59.271Z,7.30
2019-05-05T07:45:29.195Z,7.50
2019-05-05T07:47:59.270Z,7.80
2019-05-05T07:50:32.631Z,7.90
2019-05-05T07:53:12.202Z,7.80
2019-05-05T07:55:34.320Z,7.50
2019-05-05T07:58:04.437Z,7.40
2019-05-05T08:00:34.836Z,7.20
2019-05-05T08:03:04.948Z,7.60
2019-05-05T08:05:34.965Z,7.90
2019-05-05T08:08:04.983Z,8.30
2019-05-05T08:10:34.882Z,8.50
2019-05-05T08:13:04.848Z,8.80
2019-05-05T08:15:35.444Z,8.70
2019-05-05T08:18:09.832Z,8.30
2019-05-05T08:20:41.211Z,8.40
2019-05-05T08:23:28.225Z,8.30
2019-05-05T08:25:45.963Z,8.10
2019-05-05T08:28:29.776Z,8.10
2019-05-05T08:31:01.152Z,8.30
2019-05-05T08:33:33.624Z,8.80
2019-05-05T08:36:04.577Z,9.20
2019-05-05T08:38:34.901Z,9.40
2019-05-05T08:41:04.998Z,9.70
2019-05-05T08:43:34.941Z,10.00
2019-05-05T08:46:05.426Z,10.10
2019-05-05T08:48:35.440Z,10.00
2019-05-05T08:51:05.552Z,10.20
2019-05-05T08:53:44.796Z,11.30
2019-05-05T08:56:07.735Z,10.50
2019-05-05T08:58:37.649Z,9.80
2019-05-05T09:01:07.725Z,10.40
2019-05-05T09:03:37.570Z,10.20
2019-05-05T09:06:07.485Z,10.60
2019-05-05T09:08:37.498Z,10.50
2019-05-05T09:11:07.413Z,10.40
2019-05-05T09:13:37.424Z,10.40
2019-05-05T09:16:08.653Z,10.10
2019-05-05T09:18:40.304Z,9.90
2019-05-05T09:21:10.307Z,10.40
2019-05-05T09:23:41.304Z,11.40
2019-05-05T09:26:26.011Z,11.50
2019-05-05T09:28:57.645Z,10.60
2019-05-05T09:31:27.559Z,11.10
2019-05-05T09:33:57.844Z,11.60
2019-05-05T09:36:28.180Z,11.70
2019-05-05T09:38:58.312Z,11.70
2019-05-05T09:41:28.181Z,11.40
2019-05-05T09:43:58.207Z,10.60
2019-05-05T09:46:28.622Z,10.20
2019-05-05T09:48:58.534Z,10.00
2019-05-05T09:51:28.529Z,11.40
2019-05-05T09:54:11.158Z,10.70
2019-05-05T09:56:30.431Z,11.70
2019-05-05T09:59:00.378Z,12.20
2019-05-05T10:01:30.365Z,12.90
2019-05-05T10:04:10.717Z,12.70
2019-05-05T10:06:41.452Z,12.00
2019-05-05T10:09:14.060Z,11.50
2019-05-05T10:11:45.001Z,10.80
2019-05-05T10:14:15.356Z,10.60
2019-05-05T10:16:45.268Z,11.00
2019-05-05T10:19:15.476Z,11.70
2019-05-05T10:21:45.589Z,11.20
2019-05-05T10:24:27.720Z,11.30
2019-05-05T10:26:48.772Z,11.90
2019-05-05T10:29:18.882Z,12.80
2019-05-05T10:31:49.198Z,13.30
2019-05-05T10:34:20.566Z,12.80
2019-05-05T10:36:50.576Z,11.80
2019-05-05T10:39:37.033Z,11.90
2019-05-05T10:42:06.857Z,12.50
2019-05-05T10:44:36.931Z,12.50
2019-05-05T10:47:06.851Z,12.00
2019-05-05T10:49:36.852Z,12.30
2019-05-05T10:52:06.746Z,12.90
2019-05-05T10:54:44.038Z,13.00
2019-05-05T10:57:08.952Z,13.10
2019-05-05T10:59:38.868Z,12.30
2019-05-05T11:02:09.472Z,12.10
2019-05-05T11:04:39.380Z,12.20
2019-05-05T11:07:09.294Z,13.60
2019-05-05T11:09:39.510Z,13.90
2019-05-05T11:12:09.854Z,13.80
2019-05-05T11:14:40.006Z,14.30
2019-05-05T11:17:10.129Z,13.30
2019-05-05T11:19:40.734Z,12.40
2019-05-05T11:22:10.644Z,12.80
2019-05-05T11:24:54.240Z,14.50
2019-05-05T11:27:12.253Z,14.90
2019-05-05T11:29:59.750Z,14.20
2019-05-05T11:32:47.407Z,15.50
2019-05-05T11:35:18.760Z,14.60
2019-05-05T11:37:48.690Z,12.60
2019-05-05T11:40:20.244Z,12.40
2019-05-05T11:42:50.451Z,13.10
2019-05-05T11:45:20.365Z,13.20
2019-05-05T11:47:50.278Z,13.50
2019-05-05T11:50:20.106Z,15.00
2019-05-05T11:52:50.141Z,13.90
2019-05-05T11:55:20.118Z,13.70
2019-05-05T11:57:49.945Z,14.50
2019-05-05T12:00:20.366Z,15.20
2019-05-05T12:02:50.353Z,16.50
2019-05-05T12:05:20.558Z,14.90
2019-05-05T12:07:50.795Z,14.10
2019-05-05T12:10:28.417Z,14.60
2019-05-05T12:13:00.492Z,15.60
2019-05-05T12:15:30.533Z,16.20
2019-05-05T12:18:00.644Z,15.60
2019-05-05T12:20:39.308Z,15.70
2019-05-05T12:23:10.302Z,14.60
2019-05-05T12:25:54.359Z,13.90
2019-05-05T12:28:24.675Z,15.10
2019-05-05T12:31:14.667Z,14.90
2019-05-05T12:33:44.566Z,14.80
2019-05-05T12:36:15.150Z,14.90
2019-05-05T12:38:45.374Z,14.10
2019-05-05T12:41:15.375Z,14.10
2019-05-05T12:43:45.394Z,14.80
2019-05-05T12:46:16.766Z,15.20
2019-05-05T12:48:48.476Z,15.50
2019-05-05T12:51:18.778Z,16.00
2019-05-05T12:53:48.834Z,15.00
2019-05-05T12:56:19.099Z,14.50
2019-05-05T12:58:49.199Z,13.80
2019-05-05T13:01:24.569Z,14.60
2019-05-05T13:03:54.832Z,15.70
2019-05-05T13:06:25.378Z,15.60
2019-05-05T13:08:55.382Z,15.00
2019-05-05T13:11:25.342Z,15.20
2019-05-05T13:13:56.022Z,15.50
2019-05-05T13:16:26.654Z,15.50
2019-05-05T13:18:56.774Z,14.50
2019-05-05T13:21:40.289Z,14.10
2019-05-05T13:24:13.678Z,15.70
2019-05-05T13:26:48.230Z,15.10
2019-05-05T13:29:18.150Z,14.80
2019-05-05T13:31:48.207Z,14.60
2019-05-05T13:34:18.128Z,14.30
2019-05-05T13:36:48.216Z,14.10
2019-05-05T13:39:18.190Z,13.90
2019-05-05T13:41:48.203Z,14.10
2019-05-05T13:44:19.789Z,14.50
2019-05-05T13:46:49.976Z,14.50
2019-05-05T13:49:21.498Z,14.50
2019-05-05T13:51:51.496Z,14.60
2019-05-05T13:54:21.444Z,14.70
2019-05-05T13:56:51.355Z,14.70
2019-05-05T13:59:21.292Z,14.40
2019-05-05T14:01:51.448Z,13.60
2019-05-05T14:04:21.455Z,13.50
2019-05-05T14:06:51.369Z,14.30
2019-05-05T14:09:21.190Z,14.70
2019-05-05T14:11:51.104Z,14.80
2019-05-05T14:14:21.110Z,15.10
2019-05-05T14:16:51.122Z,15.20
2019-05-05T14:19:21.232Z,15.40
2019-05-05T14:21:51.402Z,14.70
2019-05-05T14:24:23.073Z,14.40
2019-05-05T14:26:54.203Z,14.30
2019-05-05T14:29:35.338Z,14.40
2019-05-05T14:32:07.035Z,14.90
2019-05-05T14:34:38.802Z,15.30
2019-05-05T14:37:26.709Z,15.10
2019-05-05T14:39:56.924Z,14.60
2019-05-05T14:42:26.727Z,14.50
2019-05-05T14:44:56.551Z,15.10
2019-05-05T14:47:26.849Z,15.10
2019-05-05T14:49:56.965Z,14.50
2019-05-05T14:52:27.266Z,14.20
2019-05-05T14:54:57.191Z,13.70
2019-05-05T14:57:30.044Z,14.00
2019-05-05T14:59:59.957Z,14.40
2019-05-05T15:02:29.872Z,14.60
2019-05-05T15:05:03.367Z,14.00
2019-05-05T15:07:37.759Z,13.80
2019-05-05T15:10:14.436Z,14.20
2019-05-05T15:12:46.141Z,14.40
2019-05-05T15:15:16.351Z,14.80
2019-05-05T15:17:46.264Z,15.00
2019-05-05T15:20:16.630Z,15.00
2019-05-05T15:22:46.788Z,15.30
2019-05-05T15:25:16.756Z,15.40
2019-05-05T15:27:46.898Z,15.00
2019-05-05T15:30:17.426Z,14.50
2019-05-05T15:32:47.607Z,13.90
2019-05-05T15:35:18.039Z,13.70
2019-05-05T15:37:47.984Z,13.70
2019-05-05T15:40:18.740Z,14.10
2019-05-05T15:42:48.640Z,13.90
2019-05-05T15:45:19.337Z,13.90
2019-05-05T15:47:49.447Z,14.10
2019-05-05T15:50:20.547Z,14.20
2019-05-05T15:52:50.512Z,14.30
2019-05-05T15:55:21.940Z,14.20
2019-05-05T15:57:52.053Z,14.10
2019-05-05T16:00:25.617Z,14.30
2019-05-05T16:02:56.038Z,14.80
2019-05-05T16:05:26.119Z,15.00
2019-05-05T16:07:56.647Z,14.90
2019-05-05T16:10:26.933Z,14.50
2019-05-05T16:12:56.840Z,14.40
2019-05-05T16:15:34.424Z,14.40
2019-05-05T16:18:22.324Z,14.40
2019-05-05T16:20:56.162Z,14.10
2019-05-05T16:23:43.596Z,13.70
2019-05-05T16:26:14.113Z,13.60
2019-05-05T16:28:44.650Z,13.60
2019-05-05T16:31:15.338Z,13.70
2019-05-05T16:33:45.167Z,14.10
2019-05-05T16:36:15.080Z,14.30
2019-05-05T16:38:45.036Z,14.50
2019-05-05T16:41:15.433Z,14.50
2019-05-05T16:43:45.549Z,14.30
2019-05-05T16:46:17.011Z,14.40
2019-05-05T16:48:47.140Z,14.30
2019-05-05T16:51:18.738Z,14.20
2019-05-05T16:53:48.557Z,14.00
2019-05-05T16:56:18.557Z,13.90
2019-05-05T16:58:48.521Z,13.90
2019-05-05T17:01:18.477Z,14.00
2019-05-05T17:03:48.649Z,13.90
2019-05-05T17:06:18.894Z,14.00
2019-05-05T17:08:48.806Z,13.90
2019-05-05T17:11:18.844Z,13.90
2019-05-05T17:13:50.302Z,13.80
2019-05-05T17:16:37.851Z,13.80
2019-05-05T17:19:15.205Z,13.70
2019-05-05T17:21:46.585Z,13.80
2019-05-05T17:24:17.588Z,13.80
2019-05-05T17:26:47.987Z,14.00
2019-05-05T17:29:18.113Z,13.80
2019-05-05T17:31:48.307Z,13.80
2019-05-05T17:34:19.401Z,14.00
2019-05-05T17:36:49.381Z,14.10
2019-05-05T17:39:20.802Z,13.90
2019-05-05T17:41:53.956Z,13.70
2019-05-05T17:44:37.320Z,13.60
2019-05-05T17:47:20.833Z,13.40
2019-05-05T17:49:58.126Z,13.30
2019-05-05T17:52:45.808Z,13.20
2019-05-05T17:55:33.811Z,13.20
2019-05-05T17:58:05.407Z,13.10
2019-05-05T18:00:37.379Z,13.10
2019-05-05T18:03:07.660Z,13.10
2019-05-05T18:05:56.762Z,13.00
2019-05-05T18:08:40.241Z,13.00
2019-05-05T18:11:16.883Z,12.90
2019-05-05T18:13:47.532Z,13.00
2019-05-05T18:16:19.034Z,13.00
2019-05-05T18:18:49.332Z,13.10
2019-05-05T18:21:19.540Z,13.10
2019-05-05T18:23:49.752Z,13.10
2019-05-05T18:26:19.761Z,13.00
2019-05-05T18:28:49.672Z,12.90
2019-05-05T18:31:19.786Z,12.80
2019-05-05T18:33:49.700Z,12.80
2019-05-05T18:36:19.942Z,12.80
2019-05-05T18:38:49.916Z,12.70
2019-05-05T18:41:23.606Z,12.60
2019-05-05T18:43:57.609Z,12.50
2019-05-05T18:46:27.625Z,12.50
2019-05-05T18:48:57.828Z,12.30
2019-05-05T18:51:27.743Z,12.30
2019-05-05T18:53:57.850Z,12.10
2019-05-05T18:56:27.752Z,12.00
2019-05-05T18:58:57.722Z,12.00
2019-05-05T19:01:29.360Z,12.00
2019-05-05T19:04:04.309Z,11.80
2019-05-05T19:06:54.721Z,11.80
2019-05-05T19:09:25.118Z,11.80
2019-05-05T19:11:55.467Z,11.80
2019-05-05T19:14:25.469Z,11.70
2019-05-05T19:16:55.724Z,11.70
2019-05-05T19:19:27.438Z,11.70
2019-05-05T19:22:04.216Z,11.60
2019-05-05T19:24:35.420Z,11.50
2019-05-05T19:27:05.764Z,11.50
2019-05-05T19:29:35.571Z,11.40
2019-05-05T19:32:05.540Z,11.40
2019-05-05T19:34:35.541Z,11.30
2019-05-05T19:37:05.614Z,11.40
2019-05-05T19:39:35.517Z,11.20
2019-05-05T19:42:05.430Z,11.30
2019-05-05T19:44:35.571Z,11.20
2019-05-05T19:47:10.074Z,11.20
2019-05-05T19:49:41.560Z,11.20
2019-05-05T19:52:13.578Z,11.00
2019-05-05T19:54:47.274Z,11.00
2019-05-05T19:57:15.038Z,10.80
2019-05-05T19:59:45.048Z,10.80
2019-05-05T20:02:14.960Z,10.70
2019-05-05T20:04:44.874Z,10.50
2019-05-05T20:07:14.783Z,10.50
2019-05-05T20:09:44.997Z,10.40
2019-05-05T20:12:15.110Z,10.20
2019-05-05T20:14:45.314Z,10.10
2019-05-05T20:17:22.737Z,10.00
2019-05-05T20:19:54.658Z,9.90
2019-05-05T20:22:24.593Z,9.80
2019-05-05T20:24:54.812Z,9.90
2019-05-05T20:27:25.116Z,9.80
2019-05-05T20:29:55.221Z,9.70
2019-05-05T20:32:26.895Z,9.80
2019-05-05T20:35:15.098Z,9.70
2019-05-05T20:37:54.129Z,9.70
2019-05-05T20:40:25.853Z,9.50
2019-05-05T20:42:55.946Z,9.40
2019-05-05T20:45:27.642Z,9.40
2019-05-05T20:47:57.688Z,9.20
2019-05-05T20:50:27.767Z,9.30
2019-05-05T20:52:57.864Z,9.30
2019-05-05T20:55:27.670Z,9.30
2019-05-05T20:57:57.686Z,9.30
2019-05-05T21:00:27.698Z,9.30
2019-05-05T21:02:57.608Z,9.20
2019-05-05T21:05:27.731Z,9.10
2019-05-05T21:07:57.730Z,9.10
2019-05-05T21:10:28.041Z,9.10
2019-05-05T21:12:57.926Z,9.10
2019-05-05T21:15:27.927Z,9.10
2019-05-05T21:17:57.876Z,8.90
2019-05-05T21:20:27.888Z,8.90
2019-05-05T21:23:00.160Z,8.90
2019-05-05T21:25:34.706Z,8.90
2019-05-05T21:28:04.903Z,8.90
2019-05-05T21:30:35.312Z,9.00
2019-05-05T21:33:05.221Z,8.90
2019-05-05T21:35:35.234Z,8.80
2019-05-05T21:38:05.465Z,8.80
2019-05-05T21:40:35.454Z,8.70
2019-05-05T21:43:05.490Z,8.60
2019-05-05T21:45:35.873Z,8.70
2019-05-05T21:48:05.910Z,8.70
2019-05-05T21:50:37.450Z,8.80
2019-05-05T21:53:14.578Z,8.90
2019-05-05T21:55:46.239Z,8.90
2019-05-05T21:58:22.615Z,8.70
2019-05-05T22:00:56.287Z,8.70
2019-05-05T22:03:31.025Z,8.70
2019-05-05T22:06:03.550Z,8.80
2019-05-05T22:08:34.663Z,8.80
2019-05-05T22:11:05.402Z,8.80
2019-05-05T22:13:36.620Z,8.70
2019-05-05T22:16:07.040Z,8.60
2019-05-05T22:18:36.988Z,8.50
2019-05-05T22:21:08.631Z,8.40
2019-05-05T22:23:38.585Z,8.20
2019-05-05T22:26:08.520Z,8.40
2019-05-05T22:28:38.804Z,8.40
2019-05-05T22:31:09.089Z,8.40
2019-05-05T22:33:40.114Z,8.30
2019-05-05T22:36:09.931Z,8.50
2019-05-05T22:38:40.455Z,8.40
2019-05-05T22:41:10.339Z,8.30
2019-05-05T22:43:40.250Z,8.30
2019-05-05T22:46:10.264Z,8.20
2019-05-05T22:48:40.193Z,8.00
2019-05-05T22:51:10.194Z,8.00
2019-05-05T22:53:40.102Z,8.20
2019-05-05T22:56:10.227Z,8.00
2019-05-05T22:58:40.321Z,8.00
2019-05-05T23:01:10.333Z,7.90
2019-05-05T23:03:43.461Z,8.10
2019-05-05T23:06:17.634Z,8.00
2019-05-05T23:08:47.662Z,8.00
2019-05-05T23:11:17.636Z,7.80
2019-05-05T23:13:47.606Z,7.80
2019-05-05T23:16:26.478Z,7.90
2019-05-05T23:18:56.734Z,7.90
2019-05-05T23:21:28.349Z,7.50
2019-05-05T23:24:17.612Z,7.50
2019-05-05T23:26:49.201Z,7.70
2019-05-05T23:29:19.103Z,7.60
2019-05-05T23:31:49.214Z,7.90
2019-05-05T23:34:19.612Z,7.80
2019-05-05T23:36:49.622Z,7.50
2019-05-05T23:39:19.536Z,7.50
2019-05-05T23:41:49.549Z,7.50
2019-05-05T23:44:19.559Z,7.50
2019-05-05T23:46:49.570Z,7.30
2019-05-05T23:49:19.783Z,7.20
2019-05-05T23:51:49.699Z,7.10
2019-05-05T23:54:20.000Z,7.00
2019-05-05T23:56:50.328Z,7.00
2019-05-05T23:59:20.307Z,7.10
